Valdosta, Georgia
Current Conditions -  °F | °C
As of 7:49 PM on Saturday 22 Nov 2014 (Local Time) from KVLD Reporting Station
Light Rain Light Rain  
Wind Chill: 61°   Ceiling: 1000
Heat Index: 61°   Visibility: 6mi
Dew Point: 57°   Wind: 10mph
Humidity: 88%   Direction: 80°E
Pressure: 30.18"   Gusts: NA
Location:  30.84°N, 83.28°W
Report Text: KVLD 230049Z 08009KT 6SM -RA BR SCT007 BKN010 OVC047 16/14 A3018 RMK AO2 P0010 $
Loading
Personal Weather Stations






























Interactive Weather Map New forecast layout! Learn more

10-Day Weather Forecast

Advertisements
Track Severe Weather on mobile